Time;durP1;ratioP1;P1;durP2;ratioP2;P2;SDS_P1;SDS_P2;PMS_P1;PMS_P2;Temp;Humidity;BMP_temperature;BMP_pressure;BME280_temperature;BME280_humidity;BME280_pressure;Samples;Min_cycle;Max_cycle;Signal;HPM_P1;HPM_P2
2022/03/06 00:00:15;;;;;;;39.67;25.30;;;;;;;4.57;52.50;102222.59;5243513;28;20099;-74
2022/03/06 00:02:47;;;;;;;39.60;24.97;;;;;;;4.51;52.39;102217.47;5241505;28;20586;-74
2022/03/06 00:05:18;;;;;;;41.90;26.57;;;;;;;4.37;52.76;102221.09;5272230;28;20600;-74
2022/03/06 00:07:50;;;;;;;35.67;23.77;;;;;;;4.39;52.67;102231.44;5267430;28;20024;-74
2022/03/06 00:10:21;;;;;;;38.33;25.13;;;;;;;4.33;53.42;102229.78;5259605;28;20028;-73
2022/03/06 00:12:52;;;;;;;36.20;23.47;;;;;;;4.27;53.08;102229.84;5244141;28;20041;-74
2022/03/06 00:15:26;;;;;;;40.47;24.70;;;;;;;4.28;53.48;102226.38;5235583;28;20057;-74
2022/03/06 00:17:57;;;;;;;38.87;25.33;;;;;;;4.22;53.30;102216.94;5230557;28;20030;-74
2022/03/06 00:20:28;;;;;;;36.23;24.60;;;;;;;4.12;53.31;102223.94;5242765;28;20021;-74
2022/03/06 00:23:00;;;;;;;38.77;25.33;;;;;;;4.13;53.80;102222.22;5241097;28;20033;-73
2022/03/06 00:25:31;;;;;;;38.73;25.43;;;;;;;4.23;53.31;102222.13;5243150;28;20083;-74
2022/03/06 00:28:03;;;;;;;38.50;26.53;;;;;;;4.03;53.92;102224.91;5243401;28;20127;-74
2022/03/06 00:30:34;;;;;;;37.43;25.33;;;;;;;4.10;53.74;102231.75;5249445;28;20025;-74
2022/03/06 00:33:06;;;;;;;35.97;24.57;;;;;;;4.29;53.42;102228.97;5249236;28;20029;-75
2022/03/06 00:35:37;;;;;;;38.77;24.17;;;;;;;4.24;53.20;102221.22;5237963;28;20037;-77
2022/03/06 00:38:08;;;;;;;40.37;24.87;;;;;;;4.05;53.33;102219.72;5245036;28;20511;-74
2022/03/06 00:40:42;;;;;;;36.40;24.37;;;;;;;4.09;53.47;102235.22;5236765;28;20464;-74
2022/03/06 00:43:13;;;;;;;35.77;24.80;;;;;;;3.79;53.90;102238.97;5240748;28;20028;-74
2022/03/06 00:45:44;;;;;;;40.37;24.53;;;;;;;4.07;54.12;102244.75;5239380;28;20078;-74
2022/03/06 00:48:16;;;;;;;39.83;24.20;;;;;;;3.89;53.53;102242.31;5247242;28;20033;-74
2022/03/06 00:50:47;;;;;;;36.30;24.00;;;;;;;4.05;53.94;102254.25;5236878;28;20035;-74
2022/03/06 00:53:18;;;;;;;39.30;25.23;;;;;;;4.01;53.59;102254.31;5240096;28;20537;-74
2022/03/06 00:55:50;;;;;;;38.70;24.50;;;;;;;4.26;53.10;102256.69;5238650;28;20442;-75
2022/03/06 00:58:21;;;;;;;37.10;24.40;;;;;;;3.94;53.83;102263.88;5244100;28;20606;-74
2022/03/06 01:00:52;;;;;;;38.87;25.33;;;;;;;3.85;54.22;102257.91;5242511;28;20112;-74
2022/03/06 01:03:24;;;;;;;37.30;23.63;;;;;;;3.82;54.01;102255.31;5248277;28;20033;-74
2022/03/06 01:05:55;;;;;;;36.23;24.43;;;;;;;3.66;54.49;102257.19;5250502;28;20021;-74
2022/03/06 01:08:27;;;;;;;36.63;23.67;;;;;;;3.74;54.15;102262.31;5249198;28;20025;-74
2022/03/06 01:10:58;;;;;;;38.47;24.73;;;;;;;3.91;53.77;102256.97;5238482;28;20140;-73
2022/03/06 01:13:29;;;;;;;36.97;24.53;;;;;;;3.86;53.82;102261.34;5228423;28;20516;-75
2022/03/06 01:16:01;;;;;;;39.43;25.17;;;;;;;3.83;53.97;102267.44;5229470;28;20076;-74
2022/03/06 01:18:33;;;;;;;36.80;23.37;;;;;;;3.94;53.61;102258.69;5241434;28;20037;-74
2022/03/06 01:21:04;;;;;;;42.47;25.60;;;;;;;3.74;53.88;102259.72;5250190;28;20045;-74
2022/03/06 01:23:35;;;;;;;39.67;24.57;;;;;;;3.71;53.47;102268.38;5244474;28;20575;-74
2022/03/06 01:26:06;;;;;;;34.23;22.87;;;;;;;3.83;53.99;102267.44;5228675;28;20487;-74
2022/03/06 01:28:38;;;;;;;38.40;23.63;;;;;;;3.91;53.80;102263.91;5230282;28;20029;-74
2022/03/06 01:31:09;;;;;;;38.47;23.43;;;;;;;3.72;53.61;102256.28;5248006;28;20140;-74
2022/03/06 01:33:41;;;;;;;38.87;24.53;;;;;;;3.65;54.06;102270.16;5229237;28;20079;-75
2022/03/06 01:36:12;;;;;;;38.17;24.67;;;;;;;3.72;54.52;102274.41;5234507;28;20119;-74
2022/03/06 01:38:43;;;;;;;38.67;24.07;;;;;;;3.93;53.89;102282.88;5248116;28;20029;-74
2022/03/06 01:41:15;;;;;;;36.97;23.37;;;;;;;3.83;54.09;102271.75;5241674;28;20048;-74
2022/03/06 01:43:46;;;;;;;37.83;23.47;;;;;;;3.66;54.80;102277.06;5234332;28;20394;-74
2022/03/06 01:46:17;;;;;;;40.30;25.67;;;;;;;3.60;54.21;102281.41;5249689;28;20021;-74
2022/03/06 01:48:48;;;;;;;39.90;24.40;;;;;;;3.53;54.87;102284.03;5249484;28;20024;-74
2022/03/06 01:51:20;;;;;;;37.07;24.10;;;;;;;3.35;54.80;102280.72;5229507;28;20013;-74
2022/03/06 01:53:51;;;;;;;36.63;25.13;;;;;;;3.40;54.50;102289.34;5229016;28;20026;-75
2022/03/06 01:56:22;;;;;;;41.57;26.07;;;;;;;3.44;55.30;102291.00;5240384;28;20036;-73
2022/03/06 01:58:55;;;;;;;40.60;26.63;;;;;;;3.45;54.82;102286.69;5231412;28;20151;-74
2022/03/06 02:01:27;;;;;;;37.97;25.20;;;;;;;3.59;54.41;102284.91;5229873;28;20018;-74
2022/03/06 02:03:58;;;;;;;39.27;24.80;;;;;;;3.36;55.11;102279.84;5249011;28;20033;-73
2022/03/06 02:06:29;;;;;;;38.47;24.93;;;;;;;3.53;54.67;102284.91;5240590;28;20029;-74
2022/03/06 02:09:01;;;;;;;38.00;23.93;;;;;;;3.57;54.64;102286.63;5234862;28;20041;-74
2022/03/06 02:11:32;;;;;;;41.83;25.30;;;;;;;3.28;55.25;102279.91;5249686;28;20079;-74
2022/03/06 02:14:04;;;;;;;37.63;24.23;;;;;;;3.41;54.81;102287.59;5249419;28;20037;-74
2022/03/06 02:16:35;;;;;;;35.80;23.50;;;;;;;3.37;55.07;102290.19;5229596;28;20065;-74
2022/03/06 02:19:06;;;;;;;42.97;25.50;;;;;;;3.12;55.10;102292.94;5231230;28;20049;-74
2022/03/06 02:21:38;;;;;;;39.63;24.37;;;;;;;3.29;54.82;102286.81;5246506;28;20032;-74
2022/03/06 02:24:09;;;;;;;38.03;23.80;;;;;;;3.17;54.88;102286.84;5248466;28;20783;-74
2022/03/06 02:26:40;;;;;;;36.83;23.87;;;;;;;3.33;54.95;102275.56;5249895;28;20021;-74
2022/03/06 02:29:11;;;;;;;35.50;23.30;;;;;;;2.97;55.75;102293.84;5247932;28;20036;-74
2022/03/06 02:31:43;;;;;;;40.57;24.93;;;;;;;3.16;55.95;102280.81;5239501;28;20039;-74
2022/03/06 02:34:14;;;;;;;42.53;24.87;;;;;;;3.31;55.76;102295.44;5247919;28;20082;-74
2022/03/06 02:36:45;;;;;;;38.70;24.40;;;;;;;3.12;55.68;102299.84;5245737;28;20440;-74
2022/03/06 02:39:16;;;;;;;37.33;24.53;;;;;;;3.25;55.66;102298.03;5233430;28;20079;-74
2022/03/06 02:41:48;;;;;;;39.23;24.60;;;;;;;2.98;56.15;102302.50;5246296;28;20033;-75
2022/03/06 02:44:19;;;;;;;38.00;24.83;;;;;;;3.12;55.17;102285.19;5231555;28;20036;-74
2022/03/06 02:46:51;;;;;;;35.23;22.97;;;;;;;3.13;55.25;102310.19;5245233;28;20075;-75
2022/03/06 02:49:23;;;;;;;37.57;23.43;;;;;;;3.22;55.29;102295.47;5252817;28;20087;-75
2022/03/06 02:51:54;;;;;;;40.80;22.87;;;;;;;2.97;56.17;102305.94;5251865;28;20287;-74
2022/03/06 02:54:25;;;;;;;36.93;25.13;;;;;;;3.09;56.49;102305.88;5249101;28;20472;-75
2022/03/06 02:56:56;;;;;;;32.50;22.07;;;;;;;3.22;55.45;102305.81;5232644;28;20076;-75
2022/03/06 02:59:28;;;;;;;38.30;23.67;;;;;;;3.01;56.27;102305.94;5235969;28;20037;-75
2022/03/06 03:01:59;;;;;;;37.33;23.33;;;;;;;2.96;57.02;102299.03;5244327;28;20060;-74
2022/03/06 03:04:37;;;;;;;39.77;23.73;;;;;;;2.91;56.80;102304.25;5240640;28;20039;-74
2022/03/06 03:07:08;;;;;;;33.33;21.47;;;;;;;2.97;56.79;102308.50;5252656;28;20466;-75
2022/03/06 03:09:40;;;;;;;33.63;22.47;;;;;;;2.86;57.24;102312.00;5248258;28;20360;-75
2022/03/06 03:12:11;;;;;;;33.07;22.17;;;;;;;2.89;57.04;102312.00;5253389;28;20048;-74
2022/03/06 03:14:42;;;;;;;33.27;22.17;;;;;;;2.98;57.79;102316.31;5274206;28;20383;-74
2022/03/06 03:17:14;;;;;;;32.70;22.00;;;;;;;2.81;57.59;102312.91;5267663;28;20029;-75
2022/03/06 03:19:45;;;;;;;33.77;21.93;;;;;;;3.00;56.76;102317.13;5230640;28;20025;-75
2022/03/06 03:22:16;;;;;;;33.43;22.07;;;;;;;2.95;57.50;102312.84;5231260;28;20559;-75
2022/03/06 03:24:47;;;;;;;32.37;21.87;;;;;;;2.90;57.57;102295.59;5238860;28;20106;-75
2022/03/06 03:27:19;;;;;;;33.33;20.70;;;;;;;2.90;57.27;102308.56;5252480;28;20487;-75
2022/03/06 03:29:50;;;;;;;37.70;21.87;;;;;;;2.73;57.80;102310.31;5247402;28;20024;-75
2022/03/06 03:32:21;;;;;;;34.17;22.10;;;;;;;2.84;57.01;102306.00;5242676;28;20058;-75
2022/03/06 03:34:52;;;;;;;33.67;21.77;;;;;;;2.80;58.02;102312.03;5232094;28;20041;-75
2022/03/06 03:37:24;;;;;;;30.83;20.97;;;;;;;2.80;57.52;102309.44;5230356;28;20043;-75
2022/03/06 03:39:55;;;;;;;35.33;21.87;;;;;;;2.62;58.23;102311.22;5241707;28;20504;-75
2022/03/06 03:42:26;;;;;;;33.57;22.53;;;;;;;2.63;58.40;102302.63;5232685;28;20045;-75
2022/03/06 03:44:58;;;;;;;36.27;22.33;;;;;;;2.69;58.46;102311.22;5244142;28;20040;-75
2022/03/06 03:47:29;;;;;;;33.63;22.30;;;;;;;2.74;58.63;102309.47;5234827;28;20032;-74
2022/03/06 03:50:00;;;;;;;33.97;21.57;;;;;;;2.55;59.13;102304.34;5237525;28;20079;-75
2022/03/06 03:52:31;;;;;;;35.90;22.37;;;;;;;2.61;58.25;102304.34;5231567;28;20739;-75
2022/03/06 03:55:03;;;;;;;34.20;21.87;;;;;;;2.58;58.39;102313.81;5239099;28;20059;-74
2022/03/06 03:57:34;;;;;;;33.73;22.40;;;;;;;2.72;57.90;102311.22;5244662;28;20037;-75
2022/03/06 04:00:07;;;;;;;32.60;21.23;;;;;;;2.61;58.01;102317.28;5243242;28;20037;-75
2022/03/06 04:02:38;;;;;;;34.97;22.27;;;;;;;2.46;58.70;102309.53;5236978;28;20043;-75
2022/03/06 04:05:09;;;;;;;32.73;20.50;;;;;;;2.60;58.19;102322.44;5245653;28;20377;-75
2022/03/06 04:07:41;;;;;;;32.33;20.83;;;;;;;2.56;58.96;102321.59;5232814;28;20029;-74
2022/03/06 04:10:12;;;;;;;33.00;22.40;;;;;;;2.50;59.17;102309.53;5237942;28;20033;-75
2022/03/06 04:12:43;;;;;;;37.20;21.63;;;;;;;2.50;58.63;102317.28;5231299;28;20049;-75
2022/03/06 04:15:14;;;;;;;32.30;22.13;;;;;;;2.45;59.25;102329.38;5251190;28;20041;-75
2022/03/06 04:17:46;;;;;;;32.97;21.63;;;;;;;2.29;59.26;102328.50;5251763;28;20036;-75
2022/03/06 04:20:17;;;;;;;34.20;22.33;;;;;;;2.36;59.47;102335.41;5246681;28;20021;-75
2022/03/06 04:22:48;;;;;;;32.57;22.17;;;;;;;2.33;59.85;102337.13;5232919;28;20494;-76
2022/03/06 04:25:19;;;;;;;36.33;22.73;;;;;;;2.33;59.53;102350.06;5235491;28;20034;-75
2022/03/06 04:27:51;;;;;;;30.43;21.43;;;;;;;2.14;59.24;102339.75;5230825;28;20063;-75
2022/03/06 04:30:22;;;;;;;33.13;21.77;;;;;;;2.28;58.75;102345.78;5232756;28;20036;-75
2022/03/06 04:32:53;;;;;;;36.63;23.30;;;;;;;2.10;59.73;102354.38;5231214;28;20030;-75
2022/03/06 04:35:25;;;;;;;30.33;21.80;;;;;;;2.18;59.92;102347.47;5249192;28;20025;-75
2022/03/06 04:37:56;;;;;;;29.70;20.20;;;;;;;2.22;59.13;102355.22;5250247;28;20024;-75
2022/03/06 04:40:27;;;;;;;31.77;21.57;;;;;;;2.11;59.57;102355.25;5239150;28;20112;-76
2022/03/06 04:42:58;;;;;;;31.57;21.33;;;;;;;2.08;59.87;102363.00;5230141;28;20033;-75
2022/03/06 04:45:30;;;;;;;37.07;23.10;;;;;;;2.04;59.97;102356.97;5234342;28;20419;-75
2022/03/06 04:48:01;;;;;;;32.43;20.63;;;;;;;2.08;60.17;102363.84;5250262;28;20102;-75
2022/03/06 04:50:32;;;;;;;32.00;22.57;;;;;;;2.20;59.58;102355.22;5236624;28;20277;-75
2022/03/06 04:53:04;;;;;;;31.40;21.23;;;;;;;2.09;60.09;102367.31;5229292;28;20743;-75
2022/03/06 04:55:35;;;;;;;33.67;22.17;;;;;;;2.08;60.20;102375.94;5240114;28;20472;-75
2022/03/06 04:58:07;;;;;;;32.83;20.93;;;;;;;2.06;60.03;102381.06;5243510;28;20669;-75
2022/03/06 05:00:38;;;;;;;28.53;20.23;;;;;;;1.98;59.93;102388.84;5240128;28;20502;-75
2022/03/06 05:03:09;;;;;;;31.17;21.00;;;;;;;1.81;60.74;102388.81;5214012;28;20127;-75
2022/03/06 05:05:41;;;;;;;30.13;20.33;;;;;;;1.99;60.11;102381.97;5249486;28;20029;-75
2022/03/06 05:08:12;;;;;;;33.17;20.80;;;;;;;1.91;60.79;102389.69;5249078;28;20029;-75
2022/03/06 05:10:43;;;;;;;30.23;20.57;;;;;;;2.00;60.37;102394.00;5239350;28;20049;-76
2022/03/06 05:13:15;;;;;;;31.33;20.97;;;;;;;2.00;60.62;102394.00;5239780;28;20033;-75
2022/03/06 05:15:46;;;;;;;31.27;20.93;;;;;;;1.96;60.66;102397.44;5237133;28;20029;-75
2022/03/06 05:18:17;;;;;;;28.77;19.73;;;;;;;2.01;61.49;102398.31;5229659;28;20025;-75
2022/03/06 05:20:49;;;;;;;30.97;20.97;;;;;;;2.08;60.44;102404.38;5236581;28;20033;-75
2022/03/06 05:23:20;;;;;;;29.77;20.80;;;;;;;2.02;60.16;102408.66;5242329;28;20448;-75
2022/03/06 05:25:54;;;;;;;27.63;18.80;;;;;;;1.99;59.51;102398.31;5230238;28;20064;-75
2022/03/06 05:28:28;;;;;;;28.33;20.55;;;;;;;1.85;60.53;102407.78;5229308;28;20017;-75
2022/03/06 05:30:59;;;;;;;29.92;19.67;;;;;;;1.65;60.91;102406.84;5233447;28;20424;-75
2022/03/06 05:33:30;;;;;;;27.70;19.00;;;;;;;1.79;60.72;102406.91;5250578;28;20021;-76
2022/03/06 05:36:02;;;;;;;30.23;20.33;;;;;;;1.75;60.82;102417.19;5231903;28;20065;-74
2022/03/06 05:38:33;;;;;;;32.60;22.50;;;;;;;1.81;60.79;102410.34;5228234;28;20021;-76
2022/03/06 05:41:04;;;;;;;31.00;20.27;;;;;;;1.74;60.90;102408.59;5235856;28;20112;-75
2022/03/06 05:43:36;;;;;;;27.40;19.80;;;;;;;1.77;61.21;102420.66;5236015;28;20033;-75
2022/03/06 05:46:07;;;;;;;26.83;18.83;;;;;;;1.74;60.76;102418.94;5242910;28;20059;-74
2022/03/06 05:48:38;;;;;;;28.43;19.30;;;;;;;1.64;61.04;102423.19;5230334;28;20061;-75
2022/03/06 05:51:09;;;;;;;34.93;21.40;;;;;;;1.81;61.09;102427.56;5229284;28;20022;-75
2022/03/06 05:53:41;;;;;;;30.40;21.10;;;;;;;1.83;60.42;102417.22;5245290;28;20033;-76
2022/03/06 05:56:13;;;;;;;29.10;20.20;;;;;;;1.88;60.22;102423.28;5245612;28;20039;-75
2022/03/06 05:58:44;;;;;;;27.73;19.70;;;;;;;1.74;60.49;102428.41;5229333;28;20074;-76
2022/03/06 06:01:17;;;;;;;29.20;19.97;;;;;;;1.73;60.86;102426.69;5232226;28;20755;-75
2022/03/06 06:03:48;;;;;;;27.10;18.60;;;;;;;1.65;60.36;102424.94;5234982;28;20036;-75
2022/03/06 06:06:19;;;;;;;27.67;20.13;;;;;;;1.78;60.26;102438.72;5248439;28;20287;-75
2022/03/06 06:08:51;;;;;;;31.13;20.13;;;;;;;1.52;60.82;102439.50;5240671;28;20033;-75
2022/03/06 06:11:22;;;;;;;27.67;20.97;;;;;;;1.65;61.05;102445.59;5232406;28;20591;-75
2022/03/06 06:13:54;;;;;;;28.27;19.87;;;;;;;1.62;61.28;102447.31;5248170;28;20029;-75
2022/03/06 06:16:25;;;;;;;25.50;18.70;;;;;;;1.49;61.24;102433.47;5234019;28;20029;-77
2022/03/06 06:18:56;;;;;;;27.03;19.27;;;;;;;1.44;61.39;102446.38;5229212;28;20021;-76
2022/03/06 06:21:28;;;;;;;27.67;19.87;;;;;;;1.43;61.40;102454.97;5234061;28;20022;-75
2022/03/06 06:23:59;;;;;;;32.87;20.07;;;;;;;1.47;61.61;102450.69;5244231;28;20029;-77
2022/03/06 06:26:30;;;;;;;28.63;19.90;;;;;;;1.30;61.54;102460.06;5259680;28;20025;-75
2022/03/06 06:29:01;;;;;;;27.27;19.37;;;;;;;1.37;61.76;102458.38;5255046;28;20123;-75
2022/03/06 06:31:32;;;;;;;29.03;20.40;;;;;;;1.30;61.98;102454.03;5217153;28;20041;-75
2022/03/06 06:34:04;;;;;;;27.47;18.70;;;;;;;1.37;61.58;102466.13;5232077;28;20025;-75
2022/03/06 06:36:35;;;;;;;27.20;20.60;;;;;;;1.16;61.79;102460.00;5232695;28;20033;-76
2022/03/06 06:39:09;;;;;;;28.93;20.17;;;;;;;1.33;61.77;102467.84;5250468;28;20029;-75
2022/03/06 06:41:42;;;;;;;26.08;18.88;;;;;;;1.28;62.09;102468.66;5251894;28;20103;-75
2022/03/06 06:44:13;;;;;;;26.03;19.53;;;;;;;1.29;61.96;102470.41;5248842;28;20025;-75
2022/03/06 06:46:44;;;;;;;30.40;19.47;;;;;;;1.24;61.74;102469.50;5260648;28;20282;-75
2022/03/06 06:49:16;;;;;;;30.60;20.43;;;;;;;1.29;62.35;102478.97;5253550;28;20018;-75
2022/03/06 06:51:47;;;;;;;26.90;19.40;;;;;;;1.27;61.85;102483.31;5253501;28;20025;-75
2022/03/06 06:54:19;;;;;;;28.90;21.20;;;;;;;1.35;62.08;102482.44;5265860;28;20075;-76
2022/03/06 06:56:50;;;;;;;28.30;20.10;;;;;;;1.32;62.33;102485.91;5271497;28;20031;-75
2022/03/06 06:59:21;;;;;;;26.00;19.23;;;;;;;1.34;62.21;102484.19;5259462;28;20029;-75
2022/03/06 07:01:53;;;;;;;29.83;20.07;;;;;;;1.23;62.14;102478.09;5259382;28;20036;-77
2022/03/06 07:04:24;;;;;;;29.57;21.17;;;;;;;1.41;62.10;102483.38;5251687;28;20151;-76
2022/03/06 07:06:55;;;;;;;32.37;20.63;;;;;;;1.54;61.41;102493.75;5263178;28;20029;-75
2022/03/06 07:09:26;;;;;;;25.63;19.67;;;;;;;1.56;61.74;102504.94;5250677;28;20506;-75
2022/03/06 07:11:58;;;;;;;28.73;20.83;;;;;;;1.40;62.44;102486.78;5233198;28;20045;-75
2022/03/06 07:14:29;;;;;;;25.73;19.37;;;;;;;1.45;62.21;102499.72;5244269;28;20029;-76
2022/03/06 07:17:01;;;;;;;28.40;20.47;;;;;;;1.75;61.60;102502.44;5243640;28;20076;-75
2022/03/06 07:19:32;;;;;;;29.33;19.13;;;;;;;1.84;61.61;102507.66;5243367;28;20030;-75
2022/03/06 07:22:04;;;;;;;28.13;19.10;;;;;;;1.77;62.21;102505.91;5241040;28;20025;-76
2022/03/06 07:24:35;;;;;;;26.67;20.10;;;;;;;1.72;61.68;102482.66;5242041;28;20017;-75
2022/03/06 07:27:06;;;;;;;28.03;20.47;;;;;;;1.97;60.67;102506.00;5239893;28;20112;-76
2022/03/06 07:29:37;;;;;;;24.80;19.33;;;;;;;2.03;60.98;102502.56;5233278;28;20033;-76
2022/03/06 07:32:09;;;;;;;26.00;19.70;;;;;;;2.10;60.79;102504.31;5240419;28;20033;-77
2022/03/06 07:34:40;;;;;;;24.63;19.33;;;;;;;2.12;60.44;102518.09;5257391;28;20064;-76
2022/03/06 07:37:12;;;;;;;31.73;20.30;;;;;;;2.23;60.76;102515.56;5258178;28;20068;-75
2022/03/06 07:39:43;;;;;;;28.20;19.70;;;;;;;2.23;60.51;102525.00;5258410;28;20353;-76
2022/03/06 07:42:14;;;;;;;25.53;19.13;;;;;;;2.33;59.75;102529.34;5251046;28;20166;-76
2022/03/06 07:44:45;;;;;;;23.50;18.37;;;;;;;2.25;60.25;102524.16;5263650;28;20115;-76
2022/03/06 07:47:17;;;;;;;24.93;18.67;;;;;;;2.43;59.68;102525.06;5271084;28;20028;-75
2022/03/06 07:49:48;;;;;;;23.30;17.63;;;;;;;2.57;59.35;102543.19;5266018;28;20031;-75
2022/03/06 07:52:19;;;;;;;29.20;20.70;;;;;;;2.77;59.31;102537.16;5273258;28;20024;-75
2022/03/06 07:54:50;;;;;;;26.10;18.27;;;;;;;3.19;58.64;102536.28;5255632;28;20025;-75
2022/03/06 07:57:22;;;;;;;25.63;18.50;;;;;;;3.89;56.71;102538.69;5261592;28;20037;-75
2022/03/06 07:59:53;;;;;;;24.07;18.83;;;;;;;4.26;55.80;102534.19;5264106;28;20609;-76
2022/03/06 08:02:24;;;;;;;22.57;17.70;;;;;;;4.75;54.40;102555.50;5251371;28;20052;-76
2022/03/06 08:04:56;;;;;;;20.43;16.23;;;;;;;4.87;53.43;102557.97;5251230;28;20029;-75
2022/03/06 08:07:27;;;;;;;21.90;16.10;;;;;;;4.98;53.53;102563.09;5265227;28;20040;-76
2022/03/06 08:09:58;;;;;;;20.80;16.30;;;;;;;4.97;53.13;102558.78;5261079;28;20570;-75
2022/03/06 08:12:30;;;;;;;20.63;16.60;;;;;;;5.34;52.16;102544.59;5262193;28;20052;-76
2022/03/06 08:15:01;;;;;;;23.33;14.60;;;;;;;5.65;51.54;102557.25;5270641;28;20054;-78
2022/03/06 08:17:33;;;;;;;22.17;16.07;;;;;;;5.89;49.86;102560.44;5256580;28;20076;-76
2022/03/06 08:20:05;;;;;;;21.80;14.97;;;;;;;6.35;49.66;102562.50;5250184;28;20028;-76
2022/03/06 08:22:36;;;;;;;19.80;14.47;;;;;;;6.84;48.15;102560.03;5239031;28;20480;-76
2022/03/06 08:25:08;;;;;;;17.57;14.20;;;;;;;7.54;46.65;102556.16;5229915;28;20034;-76
2022/03/06 08:27:40;;;;;;;22.80;15.67;;;;;;;7.92;45.29;102560.66;5231025;28;20420;-76
2022/03/06 08:30:13;;;;;;;18.90;14.07;;;;;;;8.37;44.05;102561.44;5230676;28;20034;-76
2022/03/06 08:32:44;;;;;;;17.43;14.13;;;;;;;9.00;42.49;102560.84;5230278;28;20603;-76
2022/03/06 08:35:15;;;;;;;15.73;13.57;;;;;;;9.63;40.99;102557.44;5234146;28;20104;-76
2022/03/06 08:37:47;;;;;;;17.20;13.10;;;;;;;9.89;40.88;102556.69;5250358;28;20029;-76
2022/03/06 08:40:18;;;;;;;20.33;13.30;;;;;;;10.59;39.83;102572.09;5250961;28;20037;-76
2022/03/06 08:42:49;;;;;;;14.80;12.97;;;;;;;11.12;38.62;102562.47;5250322;28;20021;-76
2022/03/06 08:45:21;;;;;;;16.40;13.07;;;;;;;11.37;37.32;102569.47;5251002;28;20027;-75
2022/03/06 08:47:52;;;;;;;15.03;12.67;;;;;;;12.39;36.96;102568.34;5250821;28;20395;-76
2022/03/06 08:50:23;;;;;;;14.70;11.87;;;;;;;12.24;36.14;102575.06;5249322;28;20549;-76
2022/03/06 08:52:54;;;;;;;17.80;12.67;;;;;;;12.60;35.16;102571.06;5240304;28;20044;-76
2022/03/06 08:55:26;;;;;;;15.77;12.93;;;;;;;12.78;34.93;102569.44;5229904;28;20423;-77
2022/03/06 08:57:57;;;;;;;15.57;13.03;;;;;;;12.01;35.71;102568.06;5229903;28;20053;-78
2022/03/06 09:00:29;;;;;;;14.93;12.10;;;;;;;12.30;35.03;102553.84;5229720;28;20472;-74
2022/03/06 09:03:00;;;;;;;17.63;12.57;;;;;;;12.67;34.82;102561.97;5230117;28;20030;-74
2022/03/06 09:05:32;;;;;;;15.70;12.80;;;;;;;13.24;33.32;102549.13;5229728;28;20454;-75
2022/03/06 09:08:03;;;;;;;30.47;14.00;;;;;;;13.47;33.40;102570.94;5228729;28;20033;-76
2022/03/06 09:10:39;;;;;;;15.70;13.17;;;;;;;14.34;31.59;102572.25;5229517;28;20542;-76
2022/03/06 09:13:10;;;;;;;16.33;12.53;;;;;;;14.63;31.08;102569.09;5229591;28;20025;-77
2022/03/06 09:15:41;;;;;;;14.67;13.10;;;;;;;15.60;29.95;102566.84;5229494;28;20547;-77
2022/03/06 09:18:13;;;;;;;13.30;11.90;;;;;;;15.73;29.31;102567.03;5229649;28;20480;-75
2022/03/06 09:20:44;;;;;;;12.57;11.27;;;;;;;16.46;28.87;102570.09;5229325;28;20116;-73
2022/03/06 09:23:16;;;;;;;14.10;11.87;;;;;;;17.16;28.65;102571.34;5228747;28;20492;-75
2022/03/06 09:25:47;;;;;;;12.80;11.50;;;;;;;16.40;28.38;102568.66;5229362;28;20021;-74
2022/03/06 09:28:18;;;;;;;12.17;10.93;;;;;;;17.70;27.50;102568.97;5232320;28;20025;-77
2022/03/06 09:30:49;;;;;;;13.63;11.13;;;;;;;17.63;26.88;102560.53;5238491;28;20383;-76
2022/03/06 09:33:21;;;;;;;14.80;11.23;;;;;;;17.88;26.80;102569.59;5237038;28;20028;-76
2022/03/06 09:35:52;;;;;;;13.83;11.97;;;;;;;17.63;26.84;102557.91;5238970;28;20025;-76
2022/03/06 09:38:23;;;;;;;14.87;11.33;;;;;;;17.96;26.26;102570.91;5240336;28;20026;-75
2022/03/06 09:41:00;;;;;;;12.33;11.03;;;;;;;18.07;26.46;102546.34;5238982;28;20104;-76
2022/03/06 09:43:32;;;;;;;15.47;10.83;;;;;;;18.64;24.89;102570.94;5261681;28;20040;-77
2022/03/06 09:46:06;;;;;;;13.20;11.77;;;;;;;19.12;24.32;102571.34;5238223;28;20033;-70
2022/03/06 09:48:37;;;;;;;12.85;11.55;;;;;;;18.90;25.29;102568.34;5235506;28;20025;-77
2022/03/06 09:51:08;;;;;;;12.07;10.67;;;;;;;19.78;23.85;102552.53;5243970;28;20020;-77
2022/03/06 09:53:40;;;;;;;12.60;11.30;;;;;;;20.10;23.51;102555.66;5247475;28;20029;-77
2022/03/06 09:56:11;;;;;;;12.67;10.37;;;;;;;19.76;23.35;102549.13;5246261;28;20077;-77
2022/03/06 09:58:43;;;;;;;11.67;10.27;;;;;;;19.61;24.05;102566.19;5246401;28;20028;-76
2022/03/06 10:01:14;;;;;;;13.07;11.50;;;;;;;20.46;23.42;102556.53;5252112;28;20048;-78
2022/03/06 10:03:45;;;;;;;15.23;10.63;;;;;;;20.07;24.22;102554.06;5254915;28;20028;-77
2022/03/06 10:06:17;;;;;;;12.87;11.20;;;;;;;21.17;22.31;102540.59;5251404;28;20024;-77
2022/03/06 10:09:02;;;;;;;13.27;10.47;;;;;;;21.84;23.99;102538.81;5247490;28;20609;-78
2022/03/06 10:11:33;;;;;;;11.20;10.10;;;;;;;21.14;22.64;102547.00;5250219;28;20045;-76
2022/03/06 10:14:04;;;;;;;10.88;9.88;;;;;;;21.34;22.26;102549.91;5248897;28;20468;-76
2022/03/06 10:16:35;;;;;;;11.48;10.25;;;;;;;21.79;21.94;102550.81;5250600;28;20773;-77
2022/03/06 10:19:07;;;;;;;11.70;10.50;;;;;;;21.87;21.93;102559.06;5251135;28;20017;-79
2022/03/06 10:21:39;;;;;;;12.07;10.65;;;;;;;21.97;21.14;102564.50;5249950;28;20037;-80
2022/03/06 10:24:14;;;;;;;11.27;9.60;;;;;;;21.95;22.65;102561.09;5252628;28;20056;-78
2022/03/06 10:26:45;;;;;;;10.90;9.63;;;;;;;21.36;20.95;102566.63;5251318;28;20024;-76
2022/03/06 10:29:17;;;;;;;11.65;10.18;;;;;;;20.71;21.78;102567.97;5249238;28;20063;-76
2022/03/06 10:31:54;;;;;;;10.18;9.18;;;;;;;19.19;24.18;102568.16;5253600;28;20025;-74
2022/03/06 10:34:37;;;;;;;11.07;9.82;;;;;;;19.54;24.56;102553.34;5251013;28;20147;-77
2022/03/06 10:37:12;;;;;;;13.15;10.05;;;;;;;19.12;24.78;102574.00;5248262;28;20036;-78
2022/03/06 10:39:45;;;;;;;10.27;9.23;;;;;;;18.38;24.88;102555.81;5252407;28;20032;-77
2022/03/06 10:42:21;;;;;;;11.40;10.23;;;;;;;17.53;25.27;102536.44;5249343;28;20687;-77
2022/03/06 10:44:53;;;;;;;11.67;9.70;;;;;;;16.55;26.02;102563.41;5250374;28;20348;-77
2022/03/06 10:47:24;;;;;;;11.33;10.03;;;;;;;16.00;26.91;102574.41;5247630;28;20041;-78
2022/03/06 10:50:00;;;;;;;11.00;9.90;;;;;;;15.93;27.35;102579.16;5248723;28;20122;-77
2022/03/06 10:52:40;;;;;;;11.23;9.03;;;;;;;15.56;28.56;102574.09;5246126;28;20029;-75
2022/03/06 10:55:12;;;;;;;11.37;9.60;;;;;;;14.91;28.46;102575.66;5249661;28;20025;-74
2022/03/06 10:57:55;;;;;;;11.03;9.70;;;;;;;15.23;28.54;102575.78;5242687;28;20450;-74
2022/03/06 11:00:27;;;;;;;15.93;10.60;;;;;;;15.56;28.10;102570.59;5247945;28;20059;-72
2022/03/06 11:03:04;;;;;;;10.70;9.03;;;;;;;14.98;29.02;102573.56;5247277;28;20155;-76
2022/03/06 11:05:39;;;;;;;11.43;10.00;;;;;;;14.40;29.04;102577.19;5246802;28;20025;-77
2022/03/06 11:08:16;;;;;;;11.98;9.60;;;;;;;14.56;29.08;102584.38;5246426;28;20025;-80
2022/03/06 11:10:48;;;;;;;11.20;8.97;;;;;;;14.59;28.72;102570.19;5251048;28;20136;-76
2022/03/06 11:13:20;;;;;;;11.27;9.00;;;;;;;14.48;29.64;102578.63;5251097;28;20036;-73
2022/03/06 11:15:51;;;;;;;11.10;9.50;;;;;;;14.07;30.21;102569.16;5250070;28;20115;-74
2022/03/06 11:18:26;;;;;;;12.33;9.87;;;;;;;13.83;30.29;102566.72;5251496;28;20517;-75
2022/03/06 11:21:01;;;;;;;11.83;10.37;;;;;;;13.11;31.43;102564.59;5252364;28;20025;-75
2022/03/06 11:23:43;;;;;;;10.73;8.98;;;;;;;13.91;30.87;102575.13;5249319;28;20033;-76
2022/03/06 11:26:14;;;;;;;11.87;9.67;;;;;;;12.67;31.00;102571.66;5251503;28;20021;-73
2022/03/06 11:29:32;;;;;;;11.60;9.23;;;;;;;13.04;31.38;102569.22;5250130;28;20023;-74
2022/03/06 11:32:05;;;;;;;12.03;10.00;;;;;;;12.97;31.77;102560.75;5251945;28;20028;-75
2022/03/06 11:34:39;;;;;;;14.82;10.85;;;;;;;12.93;31.64;102557.41;5251845;28;20029;-73
2022/03/06 11:37:13;;;;;;;11.68;8.80;;;;;;;13.08;30.66;102560.31;5247717;28;20036;-74